Time;durP1;ratioP1;P1;durP2;ratioP2;P2;SDS_P1;SDS_P2;PMS_P1;PMS_P2;Temp;Humidity;BMP_temperature;BMP_pressure;BME280_temperature;BME280_humidity;BME280_pressure;Samples;Min_cycle;Max_cycle;Signal;HPM_P1;HPM_P2
2023/12/14 00:03:01;;;;;;;13.00;4.70;;;;;;;0.41;100.00;99253.99;109179;1257;74290;-63
2023/12/14 00:05:49;;;;;;;13.00;4.80;;;;;;;0.44;100.00;99255.23;109143;1257;59781;-61
2023/12/14 00:08:37;;;;;;;13.00;4.50;;;;;;;0.48;100.00;99260.97;109058;1257;58983;-62
2023/12/14 00:11:25;;;;;;;12.70;4.40;;;;;;;0.50;100.00;99259.82;109102;1257;73754;-63
2023/12/14 00:14:13;;;;;;;12.30;4.80;;;;;;;0.53;100.00;99262.83;109097;1257;66478;-64
2023/12/14 00:17:01;;;;;;;14.90;5.00;;;;;;;0.56;100.00;99268.27;109178;1257;72414;-62
2023/12/14 00:19:50;;;;;;;12.50;4.90;;;;;;;0.56;100.00;99272.26;109201;1257;57285;-63
2023/12/14 00:22:38;;;;;;;12.80;4.90;;;;;;;0.56;100.00;99274.00;109049;1257;58730;-63
2023/12/14 00:25:25;;;;;;;12.50;5.10;;;;;;;0.56;100.00;99275.41;109168;1257;73086;-64
2023/12/14 00:28:14;;;;;;;12.30;5.40;;;;;;;0.57;100.00;99279.19;109130;1257;67635;-62
2023/12/14 00:31:01;;;;;;;12.70;5.70;;;;;;;0.60;100.00;99284.30;109076;1257;72057;-65
2023/12/14 00:33:49;;;;;;;14.00;5.60;;;;;;;0.60;100.00;99278.71;109094;1257;57324;-65
2023/12/14 00:36:38;;;;;;;12.90;5.10;;;;;;;0.66;100.00;99291.33;109054;1257;60345;-65
2023/12/14 00:39:26;;;;;;;13.60;4.60;;;;;;;0.69;100.00;99293.46;109082;1257;71969;-64
2023/12/14 00:42:15;;;;;;;12.30;4.40;;;;;;;0.71;100.00;99290.93;109100;1257;67879;-64
2023/12/14 00:45:03;;;;;;;10.30;4.30;;;;;;;0.73;100.00;99293.83;109022;1257;72421;-64
2023/12/14 00:47:52;;;;;;;11.90;4.30;;;;;;;0.74;100.00;99298.81;109062;1257;57346;-65
2023/12/14 00:50:40;;;;;;;11.00;4.40;;;;;;;0.74;100.00;99301.43;109178;1257;59113;-63
2023/12/14 00:53:28;;;;;;;12.90;4.90;;;;;;;0.75;100.00;99310.61;108960;1257;73044;-65
2023/12/14 00:56:18;;;;;;;10.60;4.60;;;;;;;0.77;100.00;99312.83;109058;1257;65451;-63
2023/12/14 00:59:10;;;;;;;13.90;5.50;;;;;;;0.78;100.00;99318.71;109095;1257;70599;-63
2023/12/14 01:01:59;;;;;;;12.30;4.70;;;;;;;0.80;100.00;99322.95;109027;1257;57491;-67
2023/12/14 01:04:48;;;;;;;11.40;4.30;;;;;;;0.82;100.00;99318.46;109006;1257;59020;-65
2023/12/14 01:07:36;;;;;;;10.00;4.20;;;;;;;0.85;100.00;99320.41;109120;1257;73092;-64
2023/12/14 01:10:24;;;;;;;11.80;4.60;;;;;;;0.86;100.00;99324.57;109197;1257;68731;-67
2023/12/14 01:13:13;;;;;;;11.20;4.70;;;;;;;0.87;100.00;99325.77;109025;1257;72718;-65
2023/12/14 01:16:01;;;;;;;9.80;3.80;;;;;;;0.88;99.97;99325.56;109007;1257;57397;-63
2023/12/14 01:18:51;;;;;;;11.50;3.90;;;;;;;0.88;99.93;99327.48;109066;1257;59079;-65
2023/12/14 01:21:39;;;;;;;9.40;4.10;;;;;;;0.82;99.82;99321.10;109039;1257;72711;-63
2023/12/14 01:24:27;;;;;;;10.00;4.00;;;;;;;0.84;99.40;99328.88;109096;1257;68898;-64
2023/12/14 01:27:15;;;;;;;11.00;4.10;;;;;;;0.83;99.54;99330.85;109074;1256;73753;-64
2023/12/14 01:30:03;;;;;;;11.00;4.20;;;;;;;0.84;99.48;99337.24;109143;1257;59492;-66
2023/12/14 01:32:52;;;;;;;10.40;4.10;;;;;;;0.86;99.40;99341.37;109017;1257;58933;-64
2023/12/14 01:35:40;;;;;;;9.20;3.20;;;;;;;0.89;99.31;99339.82;109026;1257;72858;-63
2023/12/14 01:38:28;;;;;;;8.60;3.60;;;;;;;0.91;99.02;99344.23;109210;1256;67799;-63
2023/12/14 01:41:17;;;;;;;10.40;3.80;;;;;;;0.96;99.04;99345.42;109041;1257;72742;-63
2023/12/14 01:44:05;;;;;;;9.40;3.40;;;;;;;0.99;98.84;99341.94;109088;1257;57714;-64
2023/12/14 01:46:54;;;;;;;9.50;3.30;;;;;;;1.00;98.77;99339.59;109026;1263;58743;-64
2023/12/14 01:49:42;;;;;;;8.30;3.00;;;;;;;1.02;98.73;99341.27;109147;1257;73113;-65
2023/12/14 01:52:30;;;;;;;8.40;3.10;;;;;;;1.03;98.46;99341.77;109068;1257;68103;-64
2023/12/14 01:55:18;;;;;;;9.50;3.10;;;;;;;1.03;98.38;99343.16;108993;1257;72631;-63
2023/12/14 01:58:06;;;;;;;8.50;3.70;;;;;;;1.01;98.27;99344.27;109156;1257;59991;-61
2023/12/14 02:01:06;;;;;;;8.80;3.80;;;;;;;1.01;98.45;99345.86;109084;1257;60146;-62
2023/12/14 02:03:55;;;;;;;10.40;3.90;;;;;;;1.02;98.39;99346.17;109162;1257;72076;-63
2023/12/14 02:06:43;;;;;;;10.00;4.30;;;;;;;1.04;98.55;99344.66;109147;1257;66861;-63
2023/12/14 02:09:31;;;;;;;13.30;4.90;;;;;;;1.06;98.41;99345.95;109146;1257;72822;-62
2023/12/14 02:12:19;;;;;;;10.50;4.40;;;;;;;1.09;98.52;99341.80;109157;1257;57264;-63
2023/12/14 02:15:08;;;;;;;10.50;4.20;;;;;;;1.13;98.60;99345.63;109090;1257;60115;-63
2023/12/14 02:17:56;;;;;;;9.70;3.70;;;;;;;1.15;98.30;99347.26;108288;1257;1002903;-63
2023/12/14 02:20:44;;;;;;;8.20;3.50;;;;;;;1.14;97.92;99346.77;109008;1257;68602;-62
2023/12/14 02:23:34;;;;;;;10.80;4.30;;;;;;;1.10;97.73;99348.89;109103;1256;72686;-61
2023/12/14 02:26:22;;;;;;;9.60;4.50;;;;;;;1.09;97.55;99347.41;109141;1257;57738;-61
2023/12/14 02:29:09;;;;;;;10.60;4.70;;;;;;;1.08;97.59;99349.02;109092;1257;60443;-63
2023/12/14 02:31:57;;;;;;;11.20;4.60;;;;;;;1.05;97.65;99349.70;109094;1257;72747;-62
2023/12/14 02:34:45;;;;;;;9.60;3.80;;;;;;;1.09;97.90;99357.18;109077;1257;66689;-62
2023/12/14 02:37:40;;;;;;;9.80;3.80;;;;;;;1.10;97.69;99355.73;109229;1257;71739;-62
2023/12/14 02:40:29;;;;;;;11.80;4.10;;;;;;;1.09;97.76;99353.49;109118;1257;57347;-63
2023/12/14 02:43:16;;;;;;;9.10;3.70;;;;;;;1.11;97.77;99357.94;108471;1257;1002459;-62
2023/12/14 02:46:04;;;;;;;7.70;3.10;;;;;;;1.12;97.70;99356.50;109140;1257;72978;-64
2023/12/14 02:48:52;;;;;;;7.90;2.80;;;;;;;1.11;97.66;99356.55;108418;1257;1002110;-62
2023/12/14 02:51:39;;;;;;;8.10;3.00;;;;;;;1.06;97.24;99347.89;109122;1257;72660;-62
2023/12/14 02:54:27;;;;;;;8.50;2.80;;;;;;;1.09;97.16;99355.25;108410;1257;1002915;-63
2023/12/14 02:57:15;;;;;;;9.70;3.30;;;;;;;1.08;96.91;99354.45;109088;1257;57785;-66
2023/12/14 03:00:03;;;;;;;9.50;3.50;;;;;;;1.09;96.90;99353.85;109110;1256;71749;-64
2023/12/14 03:02:51;;;;;;;10.30;3.70;;;;;;;1.11;96.86;99358.99;109003;1257;68608;-64
2023/12/14 03:05:39;;;;;;;10.10;4.10;;;;;;;1.13;97.04;99365.34;109101;1257;73744;-63
2023/12/14 03:08:27;;;;;;;9.40;3.90;;;;;;;1.17;96.83;99367.61;109028;1257;57318;-64
2023/12/14 03:11:25;;;;;;;9.50;3.50;;;;;;;1.19;96.69;99365.05;109210;1257;58777;-65
2023/12/14 03:14:13;;;;;;;9.70;4.10;;;;;;;1.19;96.46;99360.00;109192;1257;73527;-63
2023/12/14 03:17:02;;;;;;;9.70;4.30;;;;;;;1.18;96.61;99356.90;109190;1257;68004;-63
2023/12/14 03:19:50;;;;;;;10.20;3.90;;;;;;;1.17;96.61;99355.55;109183;1257;71558;-62
2023/12/14 03:22:38;;;;;;;10.10;4.10;;;;;;;1.12;96.56;99354.23;109168;1257;57401;-62
2023/12/14 03:25:26;;;;;;;10.70;4.60;;;;;;;1.15;96.80;99361.56;108404;1257;1002195;-61
2023/12/14 03:28:14;;;;;;;12.10;4.70;;;;;;;1.16;96.61;99364.14;109107;1257;73095;-62
2023/12/14 03:31:02;;;;;;;10.50;4.10;;;;;;;1.16;96.34;99361.17;109058;1257;66431;-62
2023/12/14 03:33:50;;;;;;;12.90;4.40;;;;;;;1.17;95.91;99359.38;109154;1257;72682;-64
2023/12/14 03:36:38;;;;;;;10.90;4.30;;;;;;;1.19;96.31;99357.91;109149;1257;57317;-64
2023/12/14 03:39:27;;;;;;;8.70;3.60;;;;;;;1.23;96.44;99361.02;109088;1257;61594;-64
2023/12/14 03:42:15;;;;;;;10.50;3.90;;;;;;;1.24;95.91;99366.20;108404;1260;1002542;-64
2023/12/14 03:45:04;;;;;;;9.50;3.80;;;;;;;1.26;95.62;99369.63;109191;1257;66943;-63
2023/12/14 03:47:52;;;;;;;10.10;4.00;;;;;;;1.24;95.26;99368.14;109131;1258;73702;-64
2023/12/14 03:50:40;;;;;;;8.60;3.50;;;;;;;1.23;94.95;99366.47;109171;1257;57313;-63
2023/12/14 03:53:28;;;;;;;11.20;3.90;;;;;;;1.21;95.02;99368.30;109152;1257;59086;-63
2023/12/14 03:56:16;;;;;;;9.90;3.60;;;;;;;1.21;95.03;99370.73;109144;1257;72840;-63
2023/12/14 03:59:04;;;;;;;11.30;4.10;;;;;;;1.22;94.72;99368.60;109142;1257;69038;-63
2023/12/14 04:01:51;;;;;;;9.40;3.40;;;;;;;1.21;94.27;99367.06;109055;1257;71664;-63
2023/12/14 04:04:40;;;;;;;10.00;3.70;;;;;;;1.20;94.28;99367.82;109025;1263;57344;-64
2023/12/14 04:07:27;;;;;;;8.10;3.00;;;;;;;1.18;94.15;99367.89;108960;1262;209942;-62
2023/12/14 04:10:17;;;;;;;10.00;3.40;;;;;;;1.15;93.76;99370.33;109134;1258;72210;-64
2023/12/14 04:13:04;;;;;;;9.50;2.80;;;;;;;1.13;93.71;99377.04;109142;1257;68204;-65
2023/12/14 04:15:52;;;;;;;7.80;2.90;;;;;;;1.12;93.60;99379.76;109014;1257;72134;-66
2023/12/14 04:18:40;;;;;;;7.60;2.90;;;;;;;1.12;93.54;99381.48;109162;1257;59052;-66
2023/12/14 04:21:28;;;;;;;8.30;2.80;;;;;;;1.14;93.33;99384.02;109100;1257;59646;-63
2023/12/14 04:24:16;;;;;;;7.90;2.80;;;;;;;1.17;93.41;99382.30;109115;1257;72789;-62
2023/12/14 04:27:06;;;;;;;7.50;2.90;;;;;;;1.20;92.98;99382.66;109125;1257;67869;-63
2023/12/14 04:29:54;;;;;;;7.50;2.60;;;;;;;1.21;92.78;99384.17;109109;1257;73411;-63
2023/12/14 04:32:42;;;;;;;7.20;2.60;;;;;;;1.19;92.63;99382.36;109111;1257;57835;-62
2023/12/14 04:35:31;;;;;;;9.30;2.60;;;;;;;1.23;92.20;99386.70;109141;1257;59044;-61
2023/12/14 04:38:19;;;;;;;6.60;2.10;;;;;;;1.22;91.26;99386.23;109118;1257;72683;-63
2023/12/14 04:41:06;;;;;;;6.30;1.80;;;;;;;1.23;90.81;99390.02;109192;1257;67717;-64
2023/12/14 04:43:55;;;;;;;6.10;1.70;;;;;;;1.24;89.90;99389.27;109136;1257;72680;-63
2023/12/14 04:46:43;;;;;;;6.30;2.00;;;;;;;1.29;89.23;99388.70;109035;1257;57360;-64
2023/12/14 04:49:31;;;;;;;5.80;1.90;;;;;;;1.34;88.91;99392.09;109144;1257;61037;-64
2023/12/14 04:52:18;;;;;;;6.00;1.90;;;;;;;1.39;88.46;99392.04;109093;1261;73619;-63
2023/12/14 04:55:08;;;;;;;5.70;1.70;;;;;;;1.43;88.57;99391.28;109105;1256;67952;-63
2023/12/14 04:57:56;;;;;;;5.80;1.80;;;;;;;1.46;87.23;99392.22;108931;1257;72689;-64
2023/12/14 05:00:44;;;;;;;5.60;1.60;;;;;;;1.46;86.76;99394.46;109159;1261;57300;-61
2023/12/14 05:03:35;;;;;;;5.80;1.70;;;;;;;1.46;86.47;99399.73;109110;1257;58716;-62
2023/12/14 05:06:22;;;;;;;6.50;1.90;;;;;;;1.45;85.40;99406.44;109074;1256;72115;-62
2023/12/14 05:09:11;;;;;;;6.00;2.00;;;;;;;1.43;86.01;99410.17;108990;1257;68766;-63
2023/12/14 05:11:59;;;;;;;6.30;2.00;;;;;;;1.47;85.88;99418.70;109059;1257;73575;-62
2023/12/14 05:14:47;;;;;;;6.40;1.90;;;;;;;1.49;85.70;99428.91;109190;1257;58286;-62
2023/12/14 05:17:36;;;;;;;6.40;1.90;;;;;;;1.49;85.25;99428.20;109082;1261;58626;-62
2023/12/14 05:20:24;;;;;;;5.20;1.50;;;;;;;1.49;84.66;99428.75;109144;1257;72787;-63
2023/12/14 05:23:14;;;;;;;5.70;1.80;;;;;;;1.48;84.35;99433.67;109217;1257;66523;-63
2023/12/14 05:26:02;;;;;;;6.00;1.90;;;;;;;1.48;84.49;99436.68;108289;1257;1002979;-62
2023/12/14 05:28:50;;;;;;;5.80;1.90;;;;;;;1.48;84.62;99438.61;109171;1258;57708;-63
2023/12/14 05:31:38;;;;;;;6.30;2.00;;;;;;;1.48;84.61;99442.82;109082;1257;60037;-63
2023/12/14 05:34:26;;;;;;;7.50;2.10;;;;;;;1.46;84.41;99442.55;109064;1257;71856;-64
2023/12/14 05:37:14;;;;;;;6.30;1.90;;;;;;;1.45;84.69;99448.02;109061;1257;68897;-64
2023/12/14 05:40:03;;;;;;;6.50;2.10;;;;;;;1.44;84.62;99445.77;109122;1257;72745;-62
2023/12/14 05:42:51;;;;;;;6.40;2.50;;;;;;;1.48;84.97;99445.60;109091;1257;57401;-65
2023/12/14 05:45:39;;;;;;;6.70;2.20;;;;;;;1.50;84.38;99444.79;109088;1257;61425;-63
2023/12/14 05:48:28;;;;;;;7.30;2.70;;;;;;;1.52;84.46;99446.95;109138;1257;74017;-64
2023/12/14 05:51:29;;;;;;;7.00;2.60;;;;;;;1.54;84.60;99447.23;109069;1257;66624;-63
2023/12/14 05:54:17;;;;;;;8.90;3.00;;;;;;;1.56;84.99;99451.68;109141;1257;71178;-64
2023/12/14 05:57:05;;;;;;;7.30;2.80;;;;;;;1.56;85.05;99451.65;109143;1257;57259;-61
2023/12/14 05:59:53;;;;;;;6.70;2.70;;;;;;;1.55;85.05;99453.27;109026;1257;59896;-64
2023/12/14 06:02:41;;;;;;;8.80;2.80;;;;;;;1.53;84.39;99456.02;108981;1260;71620;-62
2023/12/14 06:05:29;;;;;;;9.90;3.10;;;;;;;1.51;84.84;99463.81;109101;1260;67759;-62
2023/12/14 06:08:20;;;;;;;8.10;3.40;;;;;;;1.56;85.16;99466.55;108999;1257;72792;-62
2023/12/14 06:11:08;;;;;;;8.00;3.00;;;;;;;1.59;85.54;99458.84;109114;1257;57366;-65
2023/12/14 06:13:56;;;;;;;9.70;3.20;;;;;;;1.61;85.31;99459.11;109068;1257;61188;-62
2023/12/14 06:16:45;;;;;;;9.40;3.10;;;;;;;1.63;85.44;99464.98;109142;1257;73764;-63
2023/12/14 06:19:33;;;;;;;8.50;3.10;;;;;;;1.62;85.51;99469.24;109051;1257;67023;-63
2023/12/14 06:22:21;;;;;;;7.30;2.60;;;;;;;1.57;85.75;99467.52;109160;1257;72646;-65
2023/12/14 06:25:09;;;;;;;8.30;3.00;;;;;;;1.58;86.40;99471.19;109072;1257;57558;-62
2023/12/14 06:27:56;;;;;;;8.10;2.70;;;;;;;1.57;86.58;99476.26;109179;1257;59095;-61
2023/12/14 06:30:44;;;;;;;9.60;3.00;;;;;;;1.56;86.60;99484.89;109035;1257;71658;-64
2023/12/14 06:33:32;;;;;;;9.70;3.00;;;;;;;1.57;86.99;99487.67;109166;1257;67086;-62
2023/12/14 06:36:20;;;;;;;10.20;3.40;;;;;;;1.59;86.92;99492.07;109000;1257;72438;-62
2023/12/14 06:39:08;;;;;;;11.50;4.60;;;;;;;1.63;87.25;99487.67;109166;1257;57892;-63
2023/12/14 06:41:55;;;;;;;14.70;6.70;;;;;;;1.67;87.31;99498.30;109086;1257;61564;-63
2023/12/14 06:44:44;;;;;;;15.70;6.40;;;;;;;1.70;87.37;99498.88;109147;1257;72716;-62
2023/12/14 06:47:32;;;;;;;17.50;8.40;;;;;;;1.72;87.57;99500.19;109043;1258;65556;-67
2023/12/14 06:50:20;;;;;;;30.00;13.60;;;;;;;1.71;87.51;99500.60;108993;1258;72834;-67
2023/12/14 06:53:08;;;;;;;20.80;9.10;;;;;;;1.72;87.82;99505.63;109085;1257;57368;-64
2023/12/14 06:55:56;;;;;;;22.90;10.10;;;;;;;1.69;87.82;99500.17;109123;1257;61451;-64
2023/12/14 06:58:44;;;;;;;25.20;10.60;;;;;;;1.71;87.62;99509.52;109105;1257;73064;-66
2023/12/14 07:01:32;;;;;;;24.30;9.50;;;;;;;1.66;87.94;99513.23;109111;1257;67670;-65
2023/12/14 07:04:20;;;;;;;22.20;9.10;;;;;;;1.63;87.96;99516.52;109053;1257;72691;-66
2023/12/14 07:07:08;;;;;;;19.10;8.10;;;;;;;1.59;88.60;99523.71;109123;1257;57471;-63
2023/12/14 07:09:56;;;;;;;20.60;8.10;;;;;;;1.58;89.21;99525.90;109134;1257;61129;-65
2023/12/14 07:12:44;;;;;;;11.40;4.30;;;;;;;1.57;89.84;99529.96;109187;1257;71767;-64
2023/12/14 07:15:32;;;;;;;9.90;4.40;;;;;;;1.56;90.16;99535.61;109182;1257;67564;-66
2023/12/14 07:18:20;;;;;;;9.80;3.70;;;;;;;1.55;90.76;99541.41;109097;1257;72454;-65
2023/12/14 07:21:08;;;;;;;11.00;3.90;;;;;;;1.53;90.85;99550.23;109113;1257;57376;-65
2023/12/14 07:23:56;;;;;;;10.60;3.90;;;;;;;1.51;91.18;99558.58;109203;1257;58958;-62
2023/12/14 07:26:44;;;;;;;12.20;4.50;;;;;;;1.50;91.49;99558.79;109170;1257;73060;-64
2023/12/14 07:29:32;;;;;;;11.00;3.80;;;;;;;1.49;91.40;99565.30;109116;1257;67555;-63
2023/12/14 07:32:20;;;;;;;12.70;4.00;;;;;;;1.49;91.52;99570.54;109162;1257;71155;-62
2023/12/14 07:35:10;;;;;;;12.10;4.70;;;;;;;1.51;91.46;99576.08;109145;1257;57336;-62
2023/12/14 07:37:58;;;;;;;12.20;4.20;;;;;;;1.50;91.38;99583.96;109169;1257;59168;-63
2023/12/14 07:40:46;;;;;;;11.50;4.00;;;;;;;1.49;91.88;99585.41;109181;1257;71483;-62
2023/12/14 07:43:34;;;;;;;13.40;5.00;;;;;;;1.49;91.41;99585.77;109157;1257;66673;-63
2023/12/14 07:46:22;;;;;;;12.00;4.70;;;;;;;1.54;91.38;99584.84;109017;1257;72628;-62
2023/12/14 07:49:10;;;;;;;14.90;5.10;;;;;;;1.56;90.87;99586.31;109099;1257;58941;-60
2023/12/14 07:51:58;;;;;;;14.20;5.30;;;;;;;1.63;90.80;99595.22;109154;1257;59289;-62
2023/12/14 07:54:46;;;;;;;12.70;4.80;;;;;;;1.67;90.32;99596.11;109052;1257;72651;-63
2023/12/14 07:57:34;;;;;;;11.00;3.70;;;;;;;1.71;89.28;99595.05;109061;1257;67874;-62
2023/12/14 08:00:21;;;;;;;8.00;3.00;;;;;;;1.75;88.61;99597.48;109181;1257;71543;-63
2023/12/14 08:03:10;;;;;;;8.20;3.10;;;;;;;1.81;88.62;99601.54;108937;1257;57478;-63
2023/12/14 08:05:58;;;;;;;8.50;2.80;;;;;;;1.86;87.98;99601.80;108979;1257;58957;-62
2023/12/14 08:08:45;;;;;;;8.80;3.10;;;;;;;1.86;87.89;99590.48;109169;1257;71814;-61
2023/12/14 08:11:34;;;;;;;9.60;3.10;;;;;;;2.02;87.64;99603.30;109194;1256;68201;-61
2023/12/14 08:14:21;;;;;;;7.60;2.90;;;;;;;2.12;87.24;99611.44;109019;1257;73470;-62
2023/12/14 08:17:10;;;;;;;7.70;2.50;;;;;;;2.19;86.49;99608.60;109194;1257;57307;-62
2023/12/14 08:19:58;;;;;;;7.50;2.40;;;;;;;2.25;86.44;99613.56;109157;1257;59981;-62
2023/12/14 08:22:46;;;;;;;7.50;2.50;;;;;;;2.30;86.18;99610.17;109034;1258;70668;-61
2023/12/14 08:25:34;;;;;;;7.20;2.40;;;;;;;2.36;85.98;99616.52;109030;1260;67670;-62
2023/12/14 08:28:22;;;;;;;8.40;2.30;;;;;;;2.45;85.87;99616.92;109023;1257;72791;-65
2023/12/14 08:31:11;;;;;;;12.00;4.10;;;;;;;2.56;85.94;99617.59;109006;1257;57414;-60
2023/12/14 08:33:59;;;;;;;12.10;3.40;;;;;;;3.20;86.95;99616.97;108991;1257;61183;-63
2023/12/14 08:36:47;;;;;;;9.80;2.90;;;;;;;4.57;82.45;99612.95;109173;1257;72018;-62
2023/12/14 08:39:35;;;;;;;8.50;3.20;;;;;;;4.57;79.32;99615.95;109193;1257;67878;-62
2023/12/14 08:42:23;;;;;;;10.60;3.30;;;;;;;4.83;77.87;99618.95;109181;1257;72026;-63
2023/12/14 08:45:12;;;;;;;8.70;2.90;;;;;;;5.08;77.39;99618.09;109063;1257;58071;-62
2023/12/14 08:48:00;;;;;;;10.30;3.10;;;;;;;5.09;76.33;99619.96;109141;1257;58731;-63
2023/12/14 08:50:48;;;;;;;9.10;3.00;;;;;;;5.18;74.44;99624.86;109160;1257;71879;-63
2023/12/14 08:53:36;;;;;;;9.60;3.60;;;;;;;5.55;76.01;99633.27;109193;1257;67866;-61
2023/12/14 08:56:23;;;;;;;10.60;3.20;;;;;;;7.23;71.66;99625.98;109136;1256;71650;-62
2023/12/14 08:59:11;;;;;;;8.90;3.10;;;;;;;8.20;66.47;99623.73;108962;1257;57406;-64
2023/12/14 09:01:59;;;;;;;8.40;3.30;;;;;;;8.44;63.57;99628.34;109189;1257;59957;-64
2023/12/14 09:04:47;;;;;;;8.60;2.90;;;;;;;10.02;60.55;99627.08;109180;1257;70777;-64
2023/12/14 09:07:35;;;;;;;6.80;2.60;;;;;;;11.62;54.66;99619.33;109174;1257;68012;-63
2023/12/14 09:10:23;;;;;;;7.00;2.10;;;;;;;13.08;50.29;99615.44;109078;1257;72545;-64
2023/12/14 09:13:12;;;;;;;5.90;1.80;;;;;;;14.42;44.97;99613.77;109155;1257;57692;-62
2023/12/14 09:16:00;;;;;;;7.30;1.90;;;;;;;15.62;42.63;99614.33;109191;1257;60157;-65
2023/12/14 09:18:47;;;;;;;6.10;1.70;;;;;;;16.43;38.31;99614.09;108959;1256;71793;-62
2023/12/14 09:21:36;;;;;;;6.30;1.60;;;;;;;17.08;37.06;99607.20;109192;1257;69116;-65
2023/12/14 09:24:33;;;;;;;6.20;1.70;;;;;;;17.77;36.13;99609.02;108962;1257;71183;-64
2023/12/14 09:27:23;;;;;;;6.10;1.70;;;;;;;18.05;32.42;99611.59;109139;1257;58969;-63
2023/12/14 09:30:12;;;;;;;5.70;1.70;;;;;;;18.39;32.02;99608.37;109051;1257;60492;-63
2023/12/14 09:33:00;;;;;;;6.00;1.90;;;;;;;18.93;31.73;99607.17;109166;1257;70812;-62
2023/12/14 09:35:48;;;;;;;6.10;1.80;;;;;;;19.13;31.22;99606.79;108962;1257;66691;-66
2023/12/14 09:38:36;;;;;;;6.90;1.60;;;;;;;19.25;30.35;99614.98;108976;1257;72712;-64
2023/12/14 09:41:24;;;;;;;5.30;1.60;;;;;;;18.66;30.63;99621.64;109162;1257;57582;-63
2023/12/14 09:44:11;;;;;;;6.30;1.50;;;;;;;18.02;31.20;99631.05;109194;1256;59343;-62
2023/12/14 09:47:02;;;;;;;6.20;1.60;;;;;;;16.71;31.99;99635.46;109036;1257;72004;-63
2023/12/14 09:49:52;;;;;;;6.00;1.50;;;;;;;15.81;33.20;99642.36;108991;1257;68196;-62
2023/12/14 09:52:45;;;;;;;6.00;1.70;;;;;;;14.45;34.83;99648.65;109190;1257;71019;-61
2023/12/14 09:55:33;;;;;;;6.40;1.60;;;;;;;13.12;36.69;99649.23;109140;1257;58972;-62
2023/12/14 09:58:21;;;;;;;5.60;1.80;;;;;;;11.93;38.72;99657.34;109104;1257;60021;-63
2023/12/14 10:01:24;;;;;;;7.10;1.70;;;;;;;10.88;40.88;99665.00;109181;1257;71695;-65
2023/12/14 10:04:17;;;;;;;6.90;2.10;;;;;;;9.81;42.96;99668.27;109062;1257;65994;-62
2023/12/14 10:07:06;;;;;;;6.40;2.00;;;;;;;9.01;44.70;99666.83;109097;1256;72735;-62
2023/12/14 10:10:09;;;;;;;6.40;1.90;;;;;;;8.32;46.69;99671.69;108942;1260;57747;-63
2023/12/14 10:12:58;;;;;;;5.90;1.60;;;;;;;7.73;48.65;99677.55;108936;1260;60289;-62
2023/12/14 10:15:48;;;;;;;6.50;1.90;;;;;;;7.42;50.47;99678.15;108984;1259;72977;-61
2023/12/14 10:18:39;;;;;;;8.30;1.90;;;;;;;7.14;51.67;99676.52;108793;1259;66844;-63
2023/12/14 10:21:28;;;;;;;7.30;2.20;;;;;;;6.92;52.41;99677.34;108845;1260;73712;-65
2023/12/14 10:24:17;;;;;;;7.40;2.20;;;;;;;6.68;52.67;99678.29;108976;1259;57507;-62
2023/12/14 10:27:07;;;;;;;6.20;2.00;;;;;;;6.48;54.30;99681.37;108975;1259;59999;-62
2023/12/14 10:29:56;;;;;;;6.50;1.90;;;;;;;6.28;55.31;99683.59;108837;1260;74145;-62
2023/12/14 10:32:44;;;;;;;6.20;2.10;;;;;;;6.02;56.00;99687.16;108953;1260;67138;-62
2023/12/14 10:35:32;;;;;;;5.80;2.00;;;;;;;5.75;56.78;99691.17;108897;1260;71298;-62
2023/12/14 10:38:21;;;;;;;11.30;3.00;;;;;;;5.52;57.77;99693.99;108942;1260;57425;-62
2023/12/14 10:41:13;;;;;;;10.50;3.40;;;;;;;5.36;58.40;99697.13;108987;1257;60562;-64
2023/12/14 10:44:05;;;;;;;11.90;3.90;;;;;;;5.19;59.05;99699.03;109175;1257;72976;-62
2023/12/14 10:47:15;;;;;;;11.10;3.70;;;;;;;4.97;59.49;99698.98;109141;1257;67969;-65
2023/12/14 10:50:05;;;;;;;11.10;4.00;;;;;;;4.76;60.03;99705.33;109039;1257;73216;-61
2023/12/14 10:52:54;;;;;;;9.50;3.40;;;;;;;4.56;60.59;99709.80;109072;1257;57664;-62
2023/12/14 10:55:48;;;;;;;10.20;3.30;;;;;;;4.40;61.62;99716.20;109047;1257;57785;-61
2023/12/14 10:58:58;;;;;;;8.60;2.70;;;;;;;4.23;62.04;99718.52;109007;1257;71909;-62
2023/12/14 11:01:53;;;;;;;6.80;2.20;;;;;;;4.05;62.54;99718.14;108981;1257;65452;-62
2023/12/14 11:05:05;;;;;;;6.80;2.50;;;;;;;3.91;62.77;99718.40;108882;1257;73501;-61
2023/12/14 11:08:12;;;;;;;6.30;2.20;;;;;;;3.81;64.00;99723.35;109232;1257;58409;-63
2023/12/14 11:11:10;;;;;;;12.40;4.30;;;;;;;3.70;65.23;99725.36;109156;1257;59182;-62
2023/12/14 11:13:59;;;;;;;12.60;4.10;;;;;;;3.58;66.79;99724.92;108622;1257;1002410;-62
2023/12/14 11:16:48;;;;;;;12.40;4.20;;;;;;;3.48;67.78;99727.03;108404;1257;1002138;-63
2023/12/14 11:19:36;;;;;;;12.20;4.50;;;;;;;3.41;68.64;99725.65;109153;1257;71058;-62
2023/12/14 11:22:27;;;;;;;15.60;5.60;;;;;;;3.37;69.79;99727.45;109178;1257;57411;-62
2023/12/14 11:25:16;;;;;;;16.60;6.00;;;;;;;3.36;70.21;99734.31;109095;1256;57612;-63
2023/12/14 11:28:06;;;;;;;15.80;6.20;;;;;;;3.37;70.66;99736.89;109137;1257;72759;-62
2023/12/14 11:30:55;;;;;;;20.70;6.60;;;;;;;3.41;71.10;99741.27;109177;1257;69257;-63
2023/12/14 11:33:44;;;;;;;15.50;6.10;;;;;;;3.46;71.86;99746.79;109088;1257;72640;-65
2023/12/14 11:36:33;;;;;;;12.60;5.00;;;;;;;3.49;72.11;99751.73;109147;1257;57362;-63
2023/12/14 11:39:21;;;;;;;12.30;4.40;;;;;;;3.49;72.43;99752.23;109026;1257;60258;-62
2023/12/14 11:42:10;;;;;;;10.60;4.00;;;;;;;3.47;72.89;99758.31;109158;1257;72862;-63
2023/12/14 11:44:58;;;;;;;11.60;4.10;;;;;;;3.45;73.27;99755.65;109075;1256;66428;-62
2023/12/14 11:47:45;;;;;;;11.20;4.40;;;;;;;3.44;73.18;99757.64;109172;1257;71601;-64
2023/12/14 11:50:34;;;;;;;12.20;4.40;;;;;;;3.44;73.69;99759.58;109071;1257;57397;-64
2023/12/14 11:53:22;;;;;;;10.50;4.10;;;;;;;3.39;74.07;99755.06;109200;1257;58921;-60
2023/12/14 11:56:11;;;;;;;9.30;3.60;;;;;;;3.37;73.80;99760.75;109101;1257;72754;-65
2023/12/14 11:58:59;;;;;;;9.40;3.70;;;;;;;3.37;74.41;99760.58;109012;1257;68193;-63
2023/12/14 12:02:01;;;;;;;11.90;4.30;;;;;;;3.35;74.90;99760.34;109069;1257;72815;-64
2023/12/14 12:04:52;;;;;;;9.30;3.30;;;;;;;3.33;74.89;99766.23;108944;1257;57855;-64
2023/12/14 12:07:43;;;;;;;8.90;3.20;;;;;;;3.30;75.10;99770.82;109063;1257;60868;-64
2023/12/14 12:10:33;;;;;;;9.30;3.50;;;;;;;3.26;75.52;99772.08;109090;1257;72212;-67
2023/12/14 12:13:21;;;;;;;10.10;3.60;;;;;;;3.24;76.01;99777.23;109087;1257;66660;-65
2023/12/14 12:16:08;;;;;;;9.60;4.10;;;;;;;3.22;76.29;99773.81;109076;1257;71545;-65
2023/12/14 12:18:56;;;;;;;8.40;3.40;;;;;;;3.12;77.28;99772.58;108989;1257;57655;-63
2023/12/14 12:21:44;;;;;;;7.60;3.40;;;;;;;3.06;78.27;99784.84;109083;1259;58748;-67
2023/12/14 12:24:32;;;;;;;10.60;4.00;;;;;;;2.95;79.31;99789.91;108349;1257;1002543;-64
2023/12/14 12:27:22;;;;;;;11.60;5.50;;;;;;;2.82;80.35;99789.34;108231;1258;1002221;-65
2023/12/14 12:30:11;;;;;;;12.10;5.80;;;;;;;2.82;81.13;99802.82;108952;1260;72656;-64
2023/12/14 12:32:59;;;;;;;15.10;5.10;;;;;;;2.83;81.81;99798.42;108973;1257;57418;-64
2023/12/14 12:35:47;;;;;;;13.60;6.10;;;;;;;2.82;82.09;99799.14;109002;1257;60496;-63
2023/12/14 12:38:39;;;;;;;13.20;5.80;;;;;;;2.85;83.06;99801.33;109114;1257;71464;-64
2023/12/14 12:41:28;;;;;;;15.60;5.90;;;;;;;2.87;82.96;99805.41;109170;1257;67138;-63
2023/12/14 12:44:16;;;;;;;16.10;6.50;;;;;;;2.87;83.42;99805.91;109150;1256;72875;-65
2023/12/14 12:47:05;;;;;;;16.30;7.40;;;;;;;2.87;83.60;99807.86;108307;1257;1003733;-66
2023/12/14 12:49:58;;;;;;;15.10;7.20;;;;;;;2.83;83.87;99814.55;109075;1257;59023;-63
2023/12/14 12:52:49;;;;;;;14.90;6.50;;;;;;;2.78;85.00;99819.86;109007;1256;74148;-63
2023/12/14 12:55:37;;;;;;;18.80;7.90;;;;;;;2.71;85.93;99821.97;109027;1257;68061;-63
2023/12/14 12:58:28;;;;;;;17.50;8.10;;;;;;;2.65;86.65;99823.68;108244;1256;1003155;-64
2023/12/14 13:01:19;;;;;;;20.60;8.20;;;;;;;2.55;87.21;99828.68;109043;1256;57289;-64
2023/12/14 13:04:22;;;;;;;19.30;8.20;;;;;;;2.48;87.91;99830.41;109090;1257;59936;-63
2023/12/14 13:07:12;;;;;;;21.20;9.00;;;;;;;2.40;88.68;99832.73;109190;1256;73419;-65
2023/12/14 13:10:01;;;;;;;23.80;10.10;;;;;;;2.34;89.41;99829.67;109153;1256;67980;-63